sensor_id;sensor_type;location;lat;lon;timestamp;P1;durP1;ratioP1;P2;durP2;ratioP2
81310;SDS011;70779;52.506;5.492;2023-07-20T00:01:49;1.40;;;1.08;;
81310;SDS011;70779;52.506;5.492;2023-07-20T00:04:15;2.45;;;1.00;;
81310;SDS011;70779;52.506;5.492;2023-07-20T00:06:41;2.25;;;1.58;;
81310;SDS011;70779;52.506;5.492;2023-07-20T00:09:08;1.40;;;1.13;;
81310;SDS011;70779;52.506;5.492;2023-07-20T00:11:35;1.77;;;1.20;;
81310;SDS011;70779;52.506;5.492;2023-07-20T00:14:04;2.17;;;1.15;;
81310;SDS011;70779;52.506;5.492;2023-07-20T00:16:30;3.67;;;1.40;;
81310;SDS011;70779;52.506;5.492;2023-07-20T00:18:57;2.75;;;1.50;;
81310;SDS011;70779;52.506;5.492;2023-07-20T00:21:23;1.73;;;1.13;;
81310;SDS011;70779;52.506;5.492;2023-07-20T00:23:49;3.33;;;1.40;;
81310;SDS011;70779;52.506;5.492;2023-07-20T00:26:15;3.30;;;1.27;;
81310;SDS011;70779;52.506;5.492;2023-07-20T00:28:42;1.90;;;0.93;;
81310;SDS011;70779;52.506;5.492;2023-07-20T00:31:11;2.75;;;1.25;;
81310;SDS011;70779;52.506;5.492;2023-07-20T00:33:37;2.38;;;1.33;;
81310;SDS011;70779;52.506;5.492;2023-07-20T00:36:04;3.75;;;1.30;;
81310;SDS011;70779;52.506;5.492;2023-07-20T00:38:30;2.95;;;1.05;;
81310;SDS011;70779;52.506;5.492;2023-07-20T00:40:57;2.60;;;1.05;;
81310;SDS011;70779;52.506;5.492;2023-07-20T00:43:23;1.67;;;0.85;;
81310;SDS011;70779;52.506;5.492;2023-07-20T00:45:49;2.70;;;1.00;;
81310;SDS011;70779;52.506;5.492;2023-07-20T00:48:17;1.50;;;0.90;;
81310;SDS011;70779;52.506;5.492;2023-07-20T00:50:44;2.10;;;0.88;;
81310;SDS011;70779;52.506;5.492;2023-07-20T00:53:14;2.88;;;0.93;;
81310;SDS011;70779;52.506;5.492;2023-07-20T00:55:40;1.55;;;1.00;;
81310;SDS011;70779;52.506;5.492;2023-07-20T00:58:06;1.55;;;0.93;;
81310;SDS011;70779;52.506;5.492;2023-07-20T01:00:34;1.83;;;1.00;;
81310;SDS011;70779;52.506;5.492;2023-07-20T01:03:00;1.40;;;0.88;;
81310;SDS011;70779;52.506;5.492;2023-07-20T01:05:46;2.38;;;1.30;;
81310;SDS011;70779;52.506;5.492;2023-07-20T01:08:24;1.73;;;0.95;;
81310;SDS011;70779;52.506;5.492;2023-07-20T01:10:56;2.40;;;1.20;;
81310;SDS011;70779;52.506;5.492;2023-07-20T01:13:29;2.63;;;1.00;;
81310;SDS011;70779;52.506;5.492;2023-07-20T01:15:56;1.77;;;0.85;;
81310;SDS011;70779;52.506;5.492;2023-07-20T01:18:26;1.42;;;0.70;;
81310;SDS011;70779;52.506;5.492;2023-07-20T01:20:53;2.20;;;1.05;;
81310;SDS011;70779;52.506;5.492;2023-07-20T01:23:30;1.83;;;0.93;;
81310;SDS011;70779;52.506;5.492;2023-07-20T01:26:38;1.70;;;0.82;;
81310;SDS011;70779;52.506;5.492;2023-07-20T01:32:13;1.15;;;0.80;;
81310;SDS011;70779;52.506;5.492;2023-07-20T01:34:42;1.42;;;0.85;;
81310;SDS011;70779;52.506;5.492;2023-07-20T01:37:09;1.80;;;0.80;;
81310;SDS011;70779;52.506;5.492;2023-07-20T01:39:37;1.75;;;0.82;;
81310;SDS011;70779;52.506;5.492;2023-07-20T01:42:04;1.55;;;0.88;;
81310;SDS011;70779;52.506;5.492;2023-07-20T01:44:31;3.33;;;0.90;;
81310;SDS011;70779;52.506;5.492;2023-07-20T01:46:58;2.67;;;0.98;;
81310;SDS011;70779;52.506;5.492;2023-07-20T01:49:24;4.28;;;1.13;;
81310;SDS011;70779;52.506;5.492;2023-07-20T01:51:50;1.35;;;1.05;;
81310;SDS011;70779;52.506;5.492;2023-07-20T01:54:19;1.52;;;0.88;;
81310;SDS011;70779;52.506;5.492;2023-07-20T01:56:48;2.10;;;1.08;;
81310;SDS011;70779;52.506;5.492;2023-07-20T01:59:14;3.92;;;1.20;;
81310;SDS011;70779;52.506;5.492;2023-07-20T02:01:40;3.25;;;1.20;;
81310;SDS011;70779;52.506;5.492;2023-07-20T02:04:07;2.53;;;1.42;;
81310;SDS011;70779;52.506;5.492;2023-07-20T02:06:33;2.40;;;1.30;;
81310;SDS011;70779;52.506;5.492;2023-07-20T02:09:00;2.92;;;1.50;;
81310;SDS011;70779;52.506;5.492;2023-07-20T02:11:26;1.35;;;1.25;;
81310;SDS011;70779;52.506;5.492;2023-07-20T02:13:52;3.25;;;1.27;;
81310;SDS011;70779;52.506;5.492;2023-07-20T02:16:18;3.78;;;1.67;;
81310;SDS011;70779;52.506;5.492;2023-07-20T02:18:44;1.75;;;1.25;;
81310;SDS011;70779;52.506;5.492;2023-07-20T02:21:11;3.00;;;1.75;;
81310;SDS011;70779;52.506;5.492;2023-07-20T02:23:37;4.25;;;1.30;;
81310;SDS011;70779;52.506;5.492;2023-07-20T02:26:04;5.15;;;1.60;;
81310;SDS011;70779;52.506;5.492;2023-07-20T02:28:30;3.83;;;1.40;;
81310;SDS011;70779;52.506;5.492;2023-07-20T02:30:57;3.65;;;1.42;;
81310;SDS011;70779;52.506;5.492;2023-07-20T02:33:23;4.00;;;1.60;;
81310;SDS011;70779;52.506;5.492;2023-07-20T02:35:49;4.65;;;1.95;;
81310;SDS011;70779;52.506;5.492;2023-07-20T02:38:17;2.65;;;1.63;;
81310;SDS011;70779;52.506;5.492;2023-07-20T02:40:43;2.67;;;1.52;;
81310;SDS011;70779;52.506;5.492;2023-07-20T02:43:10;2.92;;;1.63;;
81310;SDS011;70779;52.506;5.492;2023-07-20T02:45:39;2.10;;;1.63;;
81310;SDS011;70779;52.506;5.492;2023-07-20T02:48:08;2.45;;;1.45;;
81310;SDS011;70779;52.506;5.492;2023-07-20T02:50:34;3.38;;;1.85;;
81310;SDS011;70779;52.506;5.492;2023-07-20T02:53:01;2.60;;;1.73;;
81310;SDS011;70779;52.506;5.492;2023-07-20T02:55:27;2.90;;;1.65;;
81310;SDS011;70779;52.506;5.492;2023-07-20T02:57:53;2.35;;;1.70;;
81310;SDS011;70779;52.506;5.492;2023-07-20T03:00:20;1.98;;;1.48;;
81310;SDS011;70779;52.506;5.492;2023-07-20T03:02:48;2.25;;;1.67;;
81310;SDS011;70779;52.506;5.492;2023-07-20T03:05:17;2.95;;;1.60;;
81310;SDS011;70779;52.506;5.492;2023-07-20T03:07:43;2.72;;;1.40;;
81310;SDS011;70779;52.506;5.492;2023-07-20T03:10:10;2.90;;;1.65;;
81310;SDS011;70779;52.506;5.492;2023-07-20T03:12:36;3.25;;;2.00;;
81310;SDS011;70779;52.506;5.492;2023-07-20T03:15:02;2.00;;;1.52;;
81310;SDS011;70779;52.506;5.492;2023-07-20T03:17:29;4.65;;;1.63;;
81310;SDS011;70779;52.506;5.492;2023-07-20T03:19:56;3.47;;;1.88;;
81310;SDS011;70779;52.506;5.492;2023-07-20T03:22:22;3.10;;;1.75;;
81310;SDS011;70779;52.506;5.492;2023-07-20T03:24:50;2.75;;;1.85;;
81310;SDS011;70779;52.506;5.492;2023-07-20T03:27:18;3.72;;;1.48;;
81310;SDS011;70779;52.506;5.492;2023-07-20T03:29:44;2.38;;;1.58;;
81310;SDS011;70779;52.506;5.492;2023-07-20T03:32:11;1.98;;;1.52;;
81310;SDS011;70779;52.506;5.492;2023-07-20T03:34:37;2.95;;;1.48;;
81310;SDS011;70779;52.506;5.492;2023-07-20T03:37:03;3.00;;;1.60;;
81310;SDS011;70779;52.506;5.492;2023-07-20T03:39:30;2.63;;;1.65;;
81310;SDS011;70779;52.506;5.492;2023-07-20T03:41:57;2.42;;;1.77;;
81310;SDS011;70779;52.506;5.492;2023-07-20T03:44:24;3.67;;;1.67;;
81310;SDS011;70779;52.506;5.492;2023-07-20T03:46:50;5.78;;;1.83;;
81310;SDS011;70779;52.506;5.492;2023-07-20T03:49:17;2.60;;;1.73;;
81310;SDS011;70779;52.506;5.492;2023-07-20T03:51:43;3.72;;;1.92;;
81310;SDS011;70779;52.506;5.492;2023-07-20T03:54:09;3.22;;;1.92;;
81310;SDS011;70779;52.506;5.492;2023-07-20T03:56:35;2.63;;;1.83;;
81310;SDS011;70779;52.506;5.492;2023-07-20T03:59:01;3.55;;;1.70;;
81310;SDS011;70779;52.506;5.492;2023-07-20T04:01:28;3.72;;;1.95;;
81310;SDS011;70779;52.506;5.492;2023-07-20T04:03:54;2.47;;;2.00;;
81310;SDS011;70779;52.506;5.492;2023-07-20T04:06:21;3.55;;;2.08;;
81310;SDS011;70779;52.506;5.492;2023-07-20T04:08:47;3.38;;;2.45;;
81310;SDS011;70779;52.506;5.492;2023-07-20T04:11:13;4.07;;;1.80;;
81310;SDS011;70779;52.506;5.492;2023-07-20T04:13:40;2.47;;;1.55;;
81310;SDS011;70779;52.506;5.492;2023-07-20T04:16:06;2.50;;;1.75;;
81310;SDS011;70779;52.506;5.492;2023-07-20T04:18:32;3.38;;;2.00;;
81310;SDS011;70779;52.506;5.492;2023-07-20T04:20:58;4.28;;;2.20;;
81310;SDS011;70779;52.506;5.492;2023-07-20T04:23:24;3.33;;;1.63;;
81310;SDS011;70779;52.506;5.492;2023-07-20T04:25:51;2.78;;;1.75;;
81310;SDS011;70779;52.506;5.492;2023-07-20T04:28:18;2.65;;;1.85;;
81310;SDS011;70779;52.506;5.492;2023-07-20T04:30:48;2.97;;;2.00;;
81310;SDS011;70779;52.506;5.492;2023-07-20T04:33:15;2.70;;;1.83;;
81310;SDS011;70779;52.506;5.492;2023-07-20T04:35:47;2.50;;;1.52;;
81310;SDS011;70779;52.506;5.492;2023-07-20T04:38:17;3.17;;;1.88;;
81310;SDS011;70779;52.506;5.492;2023-07-20T04:40:46;3.92;;;1.63;;
81310;SDS011;70779;52.506;5.492;2023-07-20T04:43:14;2.95;;;1.92;;
81310;SDS011;70779;52.506;5.492;2023-07-20T04:45:41;3.45;;;2.10;;
81310;SDS011;70779;52.506;5.492;2023-07-20T04:48:15;2.50;;;1.83;;
81310;SDS011;70779;52.506;5.492;2023-07-20T04:50:52;3.10;;;2.08;;
81310;SDS011;70779;52.506;5.492;2023-07-20T04:53:20;2.45;;;2.20;;
81310;SDS011;70779;52.506;5.492;2023-07-20T04:55:47;2.13;;;1.80;;
81310;SDS011;70779;52.506;5.492;2023-07-20T04:58:21;1.92;;;1.60;;
81310;SDS011;70779;52.506;5.492;2023-07-20T05:00:48;3.13;;;1.77;;
81310;SDS011;70779;52.506;5.492;2023-07-20T05:03:15;4.97;;;1.85;;
81310;SDS011;70779;52.506;5.492;2023-07-20T05:05:41;2.78;;;2.00;;
81310;SDS011;70779;52.506;5.492;2023-07-20T05:08:08;4.82;;;2.08;;
81310;SDS011;70779;52.506;5.492;2023-07-20T05:10:34;3.20;;;1.55;;
81310;SDS011;70779;52.506;5.492;2023-07-20T05:13:00;3.58;;;1.75;;
81310;SDS011;70779;52.506;5.492;2023-07-20T05:15:26;5.13;;;1.77;;
81310;SDS011;70779;52.506;5.492;2023-07-20T05:17:53;3.50;;;1.80;;
81310;SDS011;70779;52.506;5.492;2023-07-20T05:20:20;2.95;;;1.58;;
81310;SDS011;70779;52.506;5.492;2023-07-20T05:22:46;4.28;;;1.70;;
81310;SDS011;70779;52.506;5.492;2023-07-20T05:25:12;3.30;;;1.60;;
81310;SDS011;70779;52.506;5.492;2023-07-20T05:27:39;2.72;;;1.70;;
81310;SDS011;70779;52.506;5.492;2023-07-20T05:30:06;3.83;;;2.20;;
81310;SDS011;70779;52.506;5.492;2023-07-20T05:32:35;2.20;;;2.00;;
81310;SDS011;70779;52.506;5.492;2023-07-20T05:35:01;3.55;;;2.75;;
81310;SDS011;70779;52.506;5.492;2023-07-20T05:37:27;5.22;;;2.92;;
81310;SDS011;70779;52.506;5.492;2023-07-20T05:39:53;3.95;;;2.63;;
81310;SDS011;70779;52.506;5.492;2023-07-20T05:42:20;3.17;;;2.33;;
81310;SDS011;70779;52.506;5.492;2023-07-20T05:44:46;2.50;;;1.77;;
81310;SDS011;70779;52.506;5.492;2023-07-20T05:47:13;2.97;;;1.90;;
81310;SDS011;70779;52.506;5.492;2023-07-20T05:49:39;2.35;;;2.10;;
81310;SDS011;70779;52.506;5.492;2023-07-20T05:52:06;4.30;;;1.73;;
81310;SDS011;70779;52.506;5.492;2023-07-20T05:54:32;2.97;;;1.75;;
81310;SDS011;70779;52.506;5.492;2023-07-20T05:56:58;5.50;;;1.83;;
81310;SDS011;70779;52.506;5.492;2023-07-20T05:59:24;5.22;;;2.00;;
81310;SDS011;70779;52.506;5.492;2023-07-20T06:01:50;2.35;;;1.70;;
81310;SDS011;70779;52.506;5.492;2023-07-20T06:04:16;3.78;;;2.63;;
81310;SDS011;70779;52.506;5.492;2023-07-20T06:06:42;2.88;;;2.53;;
81310;SDS011;70779;52.506;5.492;2023-07-20T06:09:08;2.28;;;1.88;;
81310;SDS011;70779;52.506;5.492;2023-07-20T06:11:38;2.92;;;1.80;;
81310;SDS011;70779;52.506;5.492;2023-07-20T06:14:04;2.30;;;1.88;;
81310;SDS011;70779;52.506;5.492;2023-07-20T06:16:30;2.85;;;1.30;;
81310;SDS011;70779;52.506;5.492;2023-07-20T06:18:57;4.43;;;1.50;;
81310;SDS011;70779;52.506;5.492;2023-07-20T06:21:23;1.23;;;1.13;;
81310;SDS011;70779;52.506;5.492;2023-07-20T06:23:50;1.73;;;1.13;;
81310;SDS011;70779;52.506;5.492;2023-07-20T06:26:16;3.20;;;1.08;;
81310;SDS011;70779;52.506;5.492;2023-07-20T06:28:45;1.45;;;1.10;;
81310;SDS011;70779;52.506;5.492;2023-07-20T06:31:16;4.63;;;1.10;;
81310;SDS011;70779;52.506;5.492;2023-07-20T06:33:43;1.70;;;0.93;;
81310;SDS011;70779;52.506;5.492;2023-07-20T06:36:09;2.70;;;0.52;;
81310;SDS011;70779;52.506;5.492;2023-07-20T06:38:36;2.35;;;0.70;;
81310;SDS011;70779;52.506;5.492;2023-07-20T06:41:05;1.55;;;0.43;;
81310;SDS011;70779;52.506;5.492;2023-07-20T06:43:31;2.35;;;0.47;;
81310;SDS011;70779;52.506;5.492;2023-07-20T06:45:57;2.45;;;0.60;;
81310;SDS011;70779;52.506;5.492;2023-07-20T06:48:23;1.70;;;0.40;;
81310;SDS011;70779;52.506;5.492;2023-07-20T06:50:50;1.10;;;0.32;;
81310;SDS011;70779;52.506;5.492;2023-07-20T06:53:16;0.70;;;0.38;;
81310;SDS011;70779;52.506;5.492;2023-07-20T06:55:43;1.80;;;0.40;;
81310;SDS011;70779;52.506;5.492;2023-07-20T06:58:10;2.50;;;0.40;;
81310;SDS011;70779;52.506;5.492;2023-07-20T07:00:37;1.88;;;0.40;;
81310;SDS011;70779;52.506;5.492;2023-07-20T07:03:03;1.13;;;0.32;;
81310;SDS011;70779;52.506;5.492;2023-07-20T07:05:29;1.27;;;0.40;;
81310;SDS011;70779;52.506;5.492;2023-07-20T07:07:58;2.45;;;0.63;;
81310;SDS011;70779;52.506;5.492;2023-07-20T07:10:27;0.80;;;0.30;;
81310;SDS011;70779;52.506;5.492;2023-07-20T07:12:54;0.80;;;0.35;;
81310;SDS011;70779;52.506;5.492;2023-07-20T07:15:20;1.05;;;0.30;;
81310;SDS011;70779;52.506;5.492;2023-07-20T07:17:46;0.85;;;0.28;;
81310;SDS011;70779;52.506;5.492;2023-07-20T07:20:12;1.50;;;0.40;;
81310;SDS011;70779;52.506;5.492;2023-07-20T07:22:38;1.48;;;0.40;;
81310;SDS011;70779;52.506;5.492;2023-07-20T07:25:04;1.88;;;0.32;;
81310;SDS011;70779;52.506;5.492;2023-07-20T07:27:31;1.40;;;0.32;;
81310;SDS011;70779;52.506;5.492;2023-07-20T07:29:57;1.83;;;0.38;;
81310;SDS011;70779;52.506;5.492;2023-07-20T07:32:24;1.35;;;0.32;;
81310;SDS011;70779;52.506;5.492;2023-07-20T07:34:50;2.47;;;0.43;;
81310;SDS011;70779;52.506;5.492;2023-07-20T07:37:16;0.90;;;0.43;;
81310;SDS011;70779;52.506;5.492;2023-07-20T07:39:42;0.73;;;0.40;;
81310;SDS011;70779;52.506;5.492;2023-07-20T07:42:09;1.20;;;0.30;;
81310;SDS011;70779;52.506;5.492;2023-07-20T07:44:35;1.10;;;0.45;;
81310;SDS011;70779;52.506;5.492;2023-07-20T07:47:01;0.70;;;0.30;;
81310;SDS011;70779;52.506;5.492;2023-07-20T07:49:27;1.63;;;0.38;;
81310;SDS011;70779;52.506;5.492;2023-07-20T07:51:53;0.65;;;0.43;;
81310;SDS011;70779;52.506;5.492;2023-07-20T07:54:19;0.60;;;0.22;;
81310;SDS011;70779;52.506;5.492;2023-07-20T07:56:45;1.85;;;0.47;;
81310;SDS011;70779;52.506;5.492;2023-07-20T07:59:11;1.58;;;0.28;;
81310;SDS011;70779;52.506;5.492;2023-07-20T08:01:37;2.70;;;0.63;;
81310;SDS011;70779;52.506;5.492;2023-07-20T08:04:03;0.50;;;0.32;;
81310;SDS011;70779;52.506;5.492;2023-07-20T08:06:30;0.70;;;0.20;;
81310;SDS011;70779;52.506;5.492;2023-07-20T08:08:57;0.68;;;0.30;;
81310;SDS011;70779;52.506;5.492;2023-07-20T08:11:23;0.93;;;0.40;;
81310;SDS011;70779;52.506;5.492;2023-07-20T08:13:49;1.70;;;0.28;;
81310;SDS011;70779;52.506;5.492;2023-07-20T08:16:15;0.28;;;0.20;;
81310;SDS011;70779;52.506;5.492;2023-07-20T08:18:43;1.48;;;0.38;;
81310;SDS011;70779;52.506;5.492;2023-07-20T08:21:09;2.15;;;0.40;;
81310;SDS011;70779;52.506;5.492;2023-07-20T08:23:35;1.98;;;0.32;;
81310;SDS011;70779;52.506;5.492;2023-07-20T08:26:01;1.50;;;0.52;;
81310;SDS011;70779;52.506;5.492;2023-07-20T08:28:28;1.05;;;0.30;;
81310;SDS011;70779;52.506;5.492;2023-07-20T08:30:54;0.47;;;0.32;;
81310;SDS011;70779;52.506;5.492;2023-07-20T08:33:20;0.98;;;0.30;;
81310;SDS011;70779;52.506;5.492;2023-07-20T08:35:47;0.68;;;0.40;;
81310;SDS011;70779;52.506;5.492;2023-07-20T08:38:13;0.57;;;0.25;;
81310;SDS011;70779;52.506;5.492;2023-07-20T08:40:40;1.77;;;0.30;;
81310;SDS011;70779;52.506;5.492;2023-07-20T08:43:07;0.80;;;0.30;;
81310;SDS011;70779;52.506;5.492;2023-07-20T08:45:35;0.70;;;0.32;;
81310;SDS011;70779;52.506;5.492;2023-07-20T08:48:05;0.50;;;0.38;;
81310;SDS011;70779;52.506;5.492;2023-07-20T08:50:32;1.02;;;0.22;;
81310;SDS011;70779;52.506;5.492;2023-07-20T08:52:59;2.10;;;0.52;;
81310;SDS011;70779;52.506;5.492;2023-07-20T08:55:26;0.80;;;0.35;;
81310;SDS011;70779;52.506;5.492;2023-07-20T08:57:53;0.52;;;0.32;;
81310;SDS011;70779;52.506;5.492;2023-07-20T09:00:21;0.98;;;0.35;;
81310;SDS011;70779;52.506;5.492;2023-07-20T09:02:49;1.45;;;0.30;;
81310;SDS011;70779;52.506;5.492;2023-07-20T09:05:22;1.00;;;0.43;;
81310;SDS011;70779;52.506;5.492;2023-07-20T09:07:49;1.20;;;0.38;;
81310;SDS011;70779;52.506;5.492;2023-07-20T09:10:16;0.70;;;0.43;;
81310;SDS011;70779;52.506;5.492;2023-07-20T09:12:43;2.30;;;0.45;;
81310;SDS011;70779;52.506;5.492;2023-07-20T09:15:10;1.25;;;0.43;;
81310;SDS011;70779;52.506;5.492;2023-07-20T09:17:37;0.60;;;0.40;;
81310;SDS011;70779;52.506;5.492;2023-07-20T09:20:04;1.15;;;0.30;;
81310;SDS011;70779;52.506;5.492;2023-07-20T09:22:37;1.08;;;0.30;;
81310;SDS011;70779;52.506;5.492;2023-07-20T09:25:10;1.25;;;0.45;;
81310;SDS011;70779;52.506;5.492;2023-07-20T09:27:40;0.82;;;0.30;;
81310;SDS011;70779;52.506;5.492;2023-07-20T09:30:08;0.93;;;0.30;;
81310;SDS011;70779;52.506;5.492;2023-07-20T09:32:40;2.72;;;0.47;;
81310;SDS011;70779;52.506;5.492;2023-07-20T09:35:20;1.10;;;0.22;;
81310;SDS011;70779;52.506;5.492;2023-07-20T09:37:49;0.60;;;0.20;;
81310;SDS011;70779;52.506;5.492;2023-07-20T09:40:19;0.80;;;0.47;;
81310;SDS011;70779;52.506;5.492;2023-07-20T09:42:46;1.58;;;0.43;;
81310;SDS011;70779;52.506;5.492;2023-07-20T09:45:13;0.90;;;0.20;;
81310;SDS011;70779;52.506;5.492;2023-07-20T09:47:39;1.75;;;0.40;;
81310;SDS011;70779;52.506;5.492;2023-07-20T09:50:07;0.82;;;0.30;;
81310;SDS011;70779;52.506;5.492;2023-07-20T09:52:38;2.25;;;0.52;;
81310;SDS011;70779;52.506;5.492;2023-07-20T09:55:08;1.55;;;0.55;;
81310;SDS011;70779;52.506;5.492;2023-07-20T09:57:35;0.47;;;0.20;;
81310;SDS011;70779;52.506;5.492;2023-07-20T10:00:02;1.00;;;0.32;;
81310;SDS011;70779;52.506;5.492;2023-07-20T10:02:36;0.68;;;0.32;;
81310;SDS011;70779;52.506;5.492;2023-07-20T10:05:07;0.80;;;0.38;;
81310;SDS011;70779;52.506;5.492;2023-07-20T10:07:41;0.38;;;0.32;;
81310;SDS011;70779;52.506;5.492;2023-07-20T10:12:42;0.60;;;0.38;;
81310;SDS011;70779;52.506;5.492;2023-07-20T10:15:19;1.02;;;0.47;;
81310;SDS011;70779;52.506;5.492;2023-07-20T10:20:35;0.98;;;0.50;;
81310;SDS011;70779;52.506;5.492;2023-07-20T10:23:04;2.28;;;0.40;;
81310;SDS011;70779;52.506;5.492;2023-07-20T10:25:31;1.13;;;0.40;;
81310;SDS011;70779;52.506;5.492;2023-07-20T10:28:06;0.60;;;0.20;;
81310;SDS011;70779;52.506;5.492;2023-07-20T10:30:35;1.33;;;0.70;;
81310;SDS011;70779;52.506;5.492;2023-07-20T10:33:04;0.50;;;0.32;;
81310;SDS011;70779;52.506;5.492;2023-07-20T10:35:50;1.77;;;0.52;;
81310;SDS011;70779;52.506;5.492;2023-07-20T10:38:17;1.90;;;0.40;;
81310;SDS011;70779;52.506;5.492;2023-07-20T10:40:43;0.32;;;0.30;;
81310;SDS011;70779;52.506;5.492;2023-07-20T10:43:20;1.27;;;0.30;;
81310;SDS011;70779;52.506;5.492;2023-07-20T10:45:50;1.15;;;0.40;;
81310;SDS011;70779;52.506;5.492;2023-07-20T10:51:08;0.85;;;0.43;;
81310;SDS011;70779;52.506;5.492;2023-07-20T10:53:40;0.75;;;0.40;;
81310;SDS011;70779;52.506;5.492;2023-07-20T10:56:07;0.82;;;0.38;;
81310;SDS011;70779;52.506;5.492;2023-07-20T10:58:39;0.30;;;0.20;;
81310;SDS011;70779;52.506;5.492;2023-07-20T11:01:07;0.63;;;0.22;;
81310;SDS011;70779;52.506;5.492;2023-07-20T11:03:37;0.50;;;0.22;;
81310;SDS011;70779;52.506;5.492;2023-07-20T11:11:26;0.45;;;0.32;;
81310;SDS011;70779;52.506;5.492;2023-07-20T11:13:53;1.80;;;0.50;;
81310;SDS011;70779;52.506;5.492;2023-07-20T11:19:13;1.27;;;0.40;;
81310;SDS011;70779;52.506;5.492;2023-07-20T11:21:50;1.67;;;0.32;;
81310;SDS011;70779;52.506;5.492;2023-07-20T11:24:20;0.60;;;0.30;;
81310;SDS011;70779;52.506;5.492;2023-07-20T11:26:47;0.82;;;0.32;;
81310;SDS011;70779;52.506;5.492;2023-07-20T11:29:15;2.38;;;0.50;;
81310;SDS011;70779;52.506;5.492;2023-07-20T11:31:43;1.42;;;0.45;;
81310;SDS011;70779;52.506;5.492;2023-07-20T11:34:11;0.45;;;0.20;;
81310;SDS011;70779;52.506;5.492;2023-07-20T11:36:39;1.02;;;0.35;;
81310;SDS011;70779;52.506;5.492;2023-07-20T11:39:07;0.75;;;0.32;;
81310;SDS011;70779;52.506;5.492;2023-07-20T11:41:38;0.47;;;0.35;;
81310;SDS011;70779;52.506;5.492;2023-07-20T11:44:05;0.68;;;0.35;;
81310;SDS011;70779;52.506;5.492;2023-07-20T11:46:33;1.20;;;0.30;;
81310;SDS011;70779;52.506;5.492;2023-07-20T11:49:00;3.00;;;0.68;;
81310;SDS011;70779;52.506;5.492;2023-07-20T11:51:27;0.80;;;0.55;;
81310;SDS011;70779;52.506;5.492;2023-07-20T11:53:55;0.60;;;0.22;;
81310;SDS011;70779;52.506;5.492;2023-07-20T11:56:22;4.25;;;0.63;;
81310;SDS011;70779;52.506;5.492;2023-07-20T11:58:55;0.90;;;0.32;;
81310;SDS011;70779;52.506;5.492;2023-07-20T12:01:25;1.88;;;0.65;;
81310;SDS011;70779;52.506;5.492;2023-07-20T12:03:55;4.07;;;0.63;;
81310;SDS011;70779;52.506;5.492;2023-07-20T12:06:25;1.25;;;0.43;;
81310;SDS011;70779;52.506;5.492;2023-07-20T12:08:57;0.93;;;0.40;;
81310;SDS011;70779;52.506;5.492;2023-07-20T12:11:34;1.17;;;0.43;;
81310;SDS011;70779;52.506;5.492;2023-07-20T12:14:08;0.68;;;0.45;;
81310;SDS011;70779;52.506;5.492;2023-07-20T12:16:35;1.40;;;0.60;;
81310;SDS011;70779;52.506;5.492;2023-07-20T12:19:08;1.73;;;0.43;;
81310;SDS011;70779;52.506;5.492;2023-07-20T12:21:39;0.93;;;0.35;;
81310;SDS011;70779;52.506;5.492;2023-07-20T12:24:08;0.73;;;0.35;;
81310;SDS011;70779;52.506;5.492;2023-07-20T12:26:35;0.40;;;0.30;;
81310;SDS011;70779;52.506;5.492;2023-07-20T12:29:02;0.98;;;0.45;;
81310;SDS011;70779;52.506;5.492;2023-07-20T12:31:33;1.02;;;0.45;;
81310;SDS011;70779;52.506;5.492;2023-07-20T12:34:02;0.43;;;0.35;;
81310;SDS011;70779;52.506;5.492;2023-07-20T12:36:28;2.80;;;0.40;;
81310;SDS011;70779;52.506;5.492;2023-07-20T12:38:54;1.75;;;0.45;;
81310;SDS011;70779;52.506;5.492;2023-07-20T12:41:20;0.77;;;0.45;;
81310;SDS011;70779;52.506;5.492;2023-07-20T12:43:46;0.93;;;0.43;;
81310;SDS011;70779;52.506;5.492;2023-07-20T12:46:12;0.95;;;0.38;;
81310;SDS011;70779;52.506;5.492;2023-07-20T12:48:39;1.98;;;0.35;;
81310;SDS011;70779;52.506;5.492;2023-07-20T12:51:07;1.83;;;0.80;;
81310;SDS011;70779;52.506;5.492;2023-07-20T12:53:34;0.90;;;0.40;;
81310;SDS011;70779;52.506;5.492;2023-07-20T12:56:01;1.45;;;0.35;;
81310;SDS011;70779;52.506;5.492;2023-07-20T12:58:27;2.17;;;0.50;;
81310;SDS011;70779;52.506;5.492;2023-07-20T13:00:54;1.48;;;0.50;;
81310;SDS011;70779;52.506;5.492;2023-07-20T13:03:20;1.15;;;0.35;;
81310;SDS011;70779;52.506;5.492;2023-07-20T13:05:46;1.00;;;0.43;;
81310;SDS011;70779;52.506;5.492;2023-07-20T13:08:13;1.10;;;0.38;;
81310;SDS011;70779;52.506;5.492;2023-07-20T13:10:40;1.45;;;0.50;;
81310;SDS011;70779;52.506;5.492;2023-07-20T13:13:07;1.17;;;0.47;;
81310;SDS011;70779;52.506;5.492;2023-07-20T13:15:40;2.35;;;0.43;;
81310;SDS011;70779;52.506;5.492;2023-07-20T13:18:10;0.65;;;0.50;;
81310;SDS011;70779;52.506;5.492;2023-07-20T13:20:36;0.90;;;0.52;;
81310;SDS011;70779;52.506;5.492;2023-07-20T13:23:04;0.82;;;0.38;;
81310;SDS011;70779;52.506;5.492;2023-07-20T13:25:33;0.70;;;0.40;;
81310;SDS011;70779;52.506;5.492;2023-07-20T13:27:59;0.73;;;0.65;;
81310;SDS011;70779;52.506;5.492;2023-07-20T13:30:29;1.35;;;0.50;;
81310;SDS011;70779;52.506;5.492;2023-07-20T13:32:58;2.45;;;0.43;;
81310;SDS011;70779;52.506;5.492;2023-07-20T13:35:27;1.88;;;0.65;;
81310;SDS011;70779;52.506;5.492;2023-07-20T13:37:56;2.42;;;0.60;;
81310;SDS011;70779;52.506;5.492;2023-07-20T13:40:22;0.95;;;0.50;;
81310;SDS011;70779;52.506;5.492;2023-07-20T13:42:48;0.60;;;0.32;;
81310;SDS011;70779;52.506;5.492;2023-07-20T13:45:15;2.45;;;0.63;;
81310;SDS011;70779;52.506;5.492;2023-07-20T13:47:41;1.40;;;0.52;;
81310;SDS011;70779;52.506;5.492;2023-07-20T13:50:07;2.05;;;0.47;;
81310;SDS011;70779;52.506;5.492;2023-07-20T13:52:34;0.65;;;0.45;;
81310;SDS011;70779;52.506;5.492;2023-07-20T13:55:01;1.27;;;0.40;;
81310;SDS011;70779;52.506;5.492;2023-07-20T13:57:27;0.70;;;0.50;;
81310;SDS011;70779;52.506;5.492;2023-07-20T13:59:53;1.77;;;0.45;;
81310;SDS011;70779;52.506;5.492;2023-07-20T14:02:20;1.13;;;0.50;;
81310;SDS011;70779;52.506;5.492;2023-07-20T14:04:46;1.42;;;0.52;;
81310;SDS011;70779;52.506;5.492;2023-07-20T14:07:13;0.60;;;0.45;;
81310;SDS011;70779;52.506;5.492;2023-07-20T14:09:40;1.38;;;0.47;;
81310;SDS011;70779;52.506;5.492;2023-07-20T14:12:06;0.82;;;0.38;;
81310;SDS011;70779;52.506;5.492;2023-07-20T14:14:34;0.68;;;0.50;;
81310;SDS011;70779;52.506;5.492;2023-07-20T14:17:00;0.60;;;0.43;;
81310;SDS011;70779;52.506;5.492;2023-07-20T14:19:27;1.08;;;0.57;;
81310;SDS011;70779;52.506;5.492;2023-07-20T14:21:56;1.27;;;0.40;;
81310;SDS011;70779;52.506;5.492;2023-07-20T14:24:27;1.02;;;0.45;;
81310;SDS011;70779;52.506;5.492;2023-07-20T14:26:54;1.67;;;0.40;;
81310;SDS011;70779;52.506;5.492;2023-07-20T14:29:21;1.45;;;0.43;;
81310;SDS011;70779;52.506;5.492;2023-07-20T14:31:47;0.65;;;0.40;;
81310;SDS011;70779;52.506;5.492;2023-07-20T14:34:19;2.00;;;0.35;;
81310;SDS011;70779;52.506;5.492;2023-07-20T14:36:45;1.17;;;0.55;;
81310;SDS011;70779;52.506;5.492;2023-07-20T14:39:12;1.10;;;0.52;;
81310;SDS011;70779;52.506;5.492;2023-07-20T14:41:38;1.35;;;0.52;;
81310;SDS011;70779;52.506;5.492;2023-07-20T14:44:04;1.23;;;0.47;;
81310;SDS011;70779;52.506;5.492;2023-07-20T14:46:30;0.50;;;0.43;;
81310;SDS011;70779;52.506;5.492;2023-07-20T14:48:58;0.60;;;0.40;;
81310;SDS011;70779;52.506;5.492;2023-07-20T14:51:24;1.13;;;0.45;;
81310;SDS011;70779;52.506;5.492;2023-07-20T14:53:50;1.40;;;0.50;;
81310;SDS011;70779;52.506;5.492;2023-07-20T14:56:17;1.02;;;0.65;;
81310;SDS011;70779;52.506;5.492;2023-07-20T14:58:43;1.63;;;0.50;;
81310;SDS011;70779;52.506;5.492;2023-07-20T15:01:12;0.70;;;0.32;;
81310;SDS011;70779;52.506;5.492;2023-07-20T15:03:41;1.00;;;0.52;;
81310;SDS011;70779;52.506;5.492;2023-07-20T15:06:10;1.00;;;0.65;;
81310;SDS011;70779;52.506;5.492;2023-07-20T15:08:37;0.80;;;0.43;;
81310;SDS011;70779;52.506;5.492;2023-07-20T15:11:03;1.20;;;0.60;;